createdAt,value
2023-04-02T11:35:05.229Z,10.43
2023-04-02T11:37:36.779Z,10.28
2023-04-02T11:40:25.329Z,10.30
2023-04-02T11:42:52.661Z,10.46
2023-04-02T11:45:54.006Z,9.97
2023-04-02T11:48:28.422Z,10.03
2023-04-02T11:50:55.708Z,9.80
2023-04-02T11:53:26.708Z,10.30
2023-04-02T11:56:07.645Z,10.36
2023-04-02T11:58:44.395Z,10.41
2023-04-02T12:01:29.823Z,10.19
2023-04-02T12:04:10.464Z,9.92
2023-04-02T12:06:47.232Z,10.27
2023-04-02T12:09:19.637Z,10.12
2023-04-02T12:11:46.840Z,10.09
2023-04-02T12:14:33.242Z,10.07
2023-04-02T12:17:00.590Z,10.20
2023-04-02T12:19:27.964Z,10.39
2023-04-02T12:21:55.207Z,10.16
2023-04-02T12:24:24.115Z,10.53
2023-04-02T12:27:08.615Z,10.60
2023-04-02T12:29:35.914Z,10.53
2023-04-02T12:32:03.256Z,9.86
2023-04-02T12:34:30.563Z,10.52
2023-04-02T12:36:58.536Z,10.50
2023-04-02T12:39:28.366Z,10.61
2023-04-02T12:41:56.465Z,10.52
2023-04-02T12:44:25.967Z,10.55
2023-04-02T12:46:53.330Z,10.35
2023-04-02T12:49:32.627Z,10.47
2023-04-02T12:51:59.983Z,10.39
2023-04-02T12:54:28.574Z,10.30
2023-04-02T12:56:57.745Z,10.34
2023-04-02T12:59:29.490Z,10.69
2023-04-02T13:01:57.519Z,10.47
2023-04-02T13:04:24.838Z,10.46
2023-04-02T13:06:52.369Z,10.42
2023-04-02T13:09:30.120Z,10.51
2023-04-02T13:11:57.462Z,10.23
2023-04-02T13:14:24.710Z,10.42
2023-04-02T13:16:52.033Z,10.04
2023-04-02T13:19:27.123Z,10.31
2023-04-02T13:21:54.537Z,10.69
2023-04-02T13:24:22.439Z,10.62
2023-04-02T13:26:51.301Z,10.64
2023-04-02T13:29:28.100Z,10.74
2023-04-02T13:32:04.073Z,10.68
2023-04-02T13:34:31.382Z,10.84
2023-04-02T13:37:00.152Z,11.02
2023-04-02T13:39:27.506Z,10.85
2023-04-02T13:41:56.158Z,10.38
2023-04-02T13:44:24.689Z,10.98
2023-04-02T13:46:52.049Z,10.86
2023-04-02T13:49:20.817Z,10.34
2023-04-02T13:51:48.776Z,10.52
2023-04-02T13:54:20.914Z,10.59
2023-04-02T13:56:48.247Z,10.76
2023-04-02T13:59:15.525Z,11.00
2023-04-02T14:01:43.358Z,10.99
2023-04-02T14:04:10.818Z,10.88
2023-04-02T14:06:48.718Z,10.95
2023-04-02T14:09:17.853Z,10.88
2023-04-02T14:11:48.831Z,10.99
2023-04-02T14:14:26.156Z,10.98
2023-04-02T14:16:59.594Z,11.01
2023-04-02T14:19:39.126Z,10.99
2023-04-02T14:22:14.127Z,10.94
2023-04-02T14:24:45.112Z,10.91
2023-04-02T14:27:19.574Z,10.80
2023-04-02T14:29:48.096Z,10.60
2023-04-02T14:32:17.721Z,10.65
2023-04-02T14:34:47.808Z,10.74
2023-04-02T14:37:20.189Z,10.76
2023-04-02T14:39:52.264Z,10.76
2023-04-02T14:42:20.873Z,10.74
2023-04-02T14:44:49.709Z,10.83
2023-04-02T14:47:18.977Z,10.80
2023-04-02T14:49:46.359Z,10.77
2023-04-02T14:52:15.437Z,10.74
2023-04-02T14:54:48.331Z,10.66
2023-04-02T14:57:17.041Z,10.70
2023-04-02T14:59:46.560Z,10.66
2023-04-02T15:02:16.815Z,10.58
2023-04-02T15:04:57.264Z,10.64
2023-04-02T15:07:27.688Z,10.72
2023-04-02T15:10:00.276Z,10.74
2023-04-02T15:12:29.045Z,10.68
2023-04-02T15:14:57.048Z,10.74
2023-04-02T15:17:24.311Z,10.55
2023-04-02T15:19:52.145Z,10.35
2023-04-02T15:22:27.553Z,10.42
2023-04-02T15:25:00.878Z,10.54
2023-04-02T15:27:35.434Z,10.49
2023-04-02T15:30:06.085Z,10.63
2023-04-02T15:32:37.031Z,10.42
2023-04-02T15:35:11.112Z,10.57
2023-04-02T15:37:39.945Z,10.65
2023-04-02T15:40:17.607Z,10.76
2023-04-02T15:42:46.368Z,10.62
2023-04-02T17:43:55.738Z,10.06
2023-04-02T17:46:27.158Z,9.93
2023-04-02T17:48:56.202Z,10.01
2023-04-02T17:51:25.876Z,9.73
2023-04-02T17:54:01.213Z,9.56
2023-04-02T17:56:48.965Z,9.91
2023-04-02T17:59:41.660Z,9.97
2023-04-02T18:02:20.421Z,9.95
2023-04-02T18:04:49.916Z,9.75
2023-04-02T18:07:27.464Z,9.63
2023-04-02T18:10:07.791Z,9.65
2023-04-02T18:12:49.218Z,9.82
2023-04-02T18:15:45.919Z,9.40
2023-04-02T18:18:19.404Z,9.43
2023-04-02T18:20:50.294Z,9.57
2023-04-02T18:23:25.377Z,9.86
2023-04-02T18:25:55.167Z,9.42
2023-04-02T18:28:37.820Z,9.48
2023-04-02T18:31:08.780Z,9.48
2023-04-02T18:33:55.819Z,9.65
2023-04-02T18:36:23.501Z,9.84
2023-04-02T18:38:53.356Z,9.62
2023-04-02T18:41:28.433Z,9.50
2023-04-02T18:44:01.857Z,9.28
2023-04-02T18:46:34.330Z,9.21
2023-04-02T18:49:02.946Z,9.13
2023-04-02T18:51:32.414Z,9.20
2023-04-02T18:54:07.049Z,9.35
2023-04-02T18:56:34.284Z,9.53
2023-04-02T18:59:06.488Z,9.25
2023-04-02T19:01:37.789Z,9.10
2023-04-02T19:04:06.219Z,9.14
2023-04-02T19:06:36.445Z,9.24
2023-04-02T19:09:04.845Z,9.38
2023-04-02T19:11:31.960Z,9.05
2023-04-02T19:13:59.265Z,9.39
2023-04-02T19:16:40.006Z,9.32
2023-04-02T19:19:11.987Z,8.80
2023-04-02T19:21:44.293Z,8.58
2023-04-02T19:24:19.687Z,8.66
2023-04-02T19:26:48.877Z,8.58
2023-04-02T19:29:21.351Z,9.01
2023-04-02T19:31:53.750Z,8.76
2023-04-02T19:34:24.136Z,8.85
2023-04-02T19:36:51.804Z,8.78
2023-04-02T19:39:46.869Z,8.99
2023-04-02T19:42:23.144Z,9.11
2023-04-02T19:44:51.161Z,8.68
2023-04-02T19:47:19.908Z,8.56
2023-04-02T19:49:47.144Z,8.64
2023-04-02T19:52:14.318Z,8.70
2023-04-02T19:54:41.456Z,8.42
2023-04-02T19:57:10.572Z,8.42
2023-04-02T19:59:37.855Z,8.27
2023-04-02T20:02:05.108Z,8.18
2023-04-02T20:04:33.779Z,8.32
2023-04-02T20:07:01.100Z,8.33
2023-04-02T20:09:28.452Z,8.22
2023-04-02T20:11:55.683Z,8.15
2023-04-02T20:14:22.977Z,8.04
2023-04-02T20:16:50.261Z,8.08
2023-04-02T20:19:17.492Z,8.17
2023-04-02T20:21:46.221Z,8.25
2023-04-02T20:24:13.536Z,8.25
